Time;durP1;ratioP1;P1;durP2;ratioP2;P2;SDS_P1;SDS_P2;PMS_P1;PMS_P2;Temp;Humidity;BMP_temperature;BMP_pressure;BME280_temperature;BME280_humidity;BME280_pressure;Samples;Min_cycle;Max_cycle;Signal;HPM_P1;HPM_P2
2021/01/09 00:00:13;;;;;;;4.97;4.30;;;21.00;33.50;;;;;;5031668;28;20399;-59
2021/01/09 00:02:39;;;;;;;4.90;4.35;;;21.00;33.50;;;;;;5033943;28;20394;-59
2021/01/09 00:05:06;;;;;;;4.88;4.30;;;20.90;33.40;;;;;;5033780;28;20922;-59
2021/01/09 00:07:32;;;;;;;5.40;4.38;;;21.00;33.50;;;;;;5034606;28;20391;-58
2021/01/09 00:09:59;;;;;;;4.97;4.20;;;20.90;33.40;;;;;;5034494;28;20416;-59
2021/01/09 00:12:24;;;;;;;4.73;4.10;;;20.90;33.30;;;;;;5033941;28;20420;-59
2021/01/09 00:14:51;;;;;;;4.43;3.88;;;20.90;33.30;;;;;;5034420;28;20448;-59
2021/01/09 00:17:16;;;;;;;4.20;3.80;;;20.90;33.30;;;;;;5034370;28;20418;-59
2021/01/09 00:19:42;;;;;;;4.40;4.00;;;20.90;33.20;;;;;;5034477;28;20395;-59
2021/01/09 00:22:08;;;;;;;4.67;4.13;;;20.90;33.30;;;;;;5034169;28;20898;-59
2021/01/09 00:24:34;;;;;;;5.10;4.03;;;20.90;33.20;;;;;;5033971;28;20883;-59
2021/01/09 00:26:59;;;;;;;4.90;3.90;;;20.80;33.10;;;;;;5032946;28;21600;-58
2021/01/09 00:29:25;;;;;;;4.73;4.20;;;20.80;33.10;;;;;;5034287;28;20399;-59
2021/01/09 00:31:52;;;;;;;4.53;4.05;;;20.90;33.20;;;;;;5034129;28;20410;-59
2021/01/09 00:34:20;;;;;;;4.55;3.92;;;20.80;33.00;;;;;;5033667;28;20437;-59
2021/01/09 00:36:49;;;;;;;4.57;4.10;;;20.80;33.10;;;;;;5033975;28;20469;-59
2021/01/09 00:39:14;;;;;;;4.43;4.03;;;20.80;33.10;;;;;;5033777;28;20465;-59
2021/01/09 00:41:40;;;;;;;4.50;4.10;;;20.80;33.10;;;;;;5034050;28;20386;-59
2021/01/09 00:44:07;;;;;;;4.18;3.78;;;20.80;33.00;;;;;;5033777;28;20410;-59
2021/01/09 00:46:33;;;;;;;4.43;4.03;;;20.80;33.00;;;;;;5033498;28;20391;-59
2021/01/09 00:48:59;;;;;;;4.15;3.60;;;20.80;33.00;;;;;;5033878;28;20391;-59
2021/01/09 00:51:25;;;;;;;4.20;3.80;;;20.80;33.10;;;;;;5032991;28;20383;-59
2021/01/09 00:53:50;;;;;;;4.05;3.65;;;20.80;33.10;;;;;;5033636;28;20923;-59
2021/01/09 00:56:16;;;;;;;4.30;3.60;;;20.70;33.00;;;;;;5033729;28;20478;-56
2021/01/09 00:58:45;;;;;;;4.63;3.95;;;20.80;33.10;;;;;;5033162;28;20505;-56
2021/01/09 01:01:11;;;;;;;4.50;3.97;;;20.70;33.00;;;;;;5033651;28;20380;-56
2021/01/09 01:03:42;;;;;;;4.10;3.70;;;20.70;32.90;;;;;;5033406;28;20485;-57
2021/01/09 01:06:11;;;;;;;4.38;3.72;;;20.70;33.00;;;;;;5033592;28;20875;-56
2021/01/09 01:08:37;;;;;;;4.35;3.60;;;20.70;32.90;;;;;;5032984;28;20387;-57
2021/01/09 01:11:06;;;;;;;4.35;3.80;;;20.70;32.90;;;;;;5033303;28;20395;-57
2021/01/09 01:13:31;;;;;;;4.30;3.90;;;20.70;32.80;;;;;;5031586;28;20449;-56
2021/01/09 01:15:57;;;;;;;4.20;3.67;;;20.70;32.80;;;;;;5033424;28;20406;-56
2021/01/09 01:18:23;;;;;;;4.43;3.60;;;20.60;32.70;;;;;;5033139;28;20775;-57
2021/01/09 01:20:49;;;;;;;4.00;3.60;;;20.60;32.70;;;;;;5032841;28;20391;-57
2021/01/09 01:23:16;;;;;;;4.40;3.72;;;20.60;32.70;;;;;;5030417;28;20404;-56
2021/01/09 01:25:41;;;;;;;4.30;3.90;;;20.60;32.70;;;;;;5032906;28;20398;-56
2021/01/09 01:28:07;;;;;;;4.25;3.72;;;20.60;32.70;;;;;;5033043;28;20407;-56
2021/01/09 01:30:33;;;;;;;4.67;3.80;;;20.60;32.70;;;;;;5032632;28;20391;-56
2021/01/09 01:32:58;;;;;;;3.85;3.45;;;20.60;32.70;;;;;;5032778;28;20422;-56
2021/01/09 01:35:24;;;;;;;4.00;3.60;;;20.60;32.60;;;;;;5033204;28;20433;-56
2021/01/09 01:37:50;;;;;;;4.03;3.42;;;20.60;32.70;;;;;;5031999;28;21006;-56
2021/01/09 01:40:15;;;;;;;3.70;3.20;;;20.60;32.70;;;;;;5030412;28;20399;-56
2021/01/09 01:42:41;;;;;;;3.95;3.35;;;20.60;32.70;;;;;;5032530;28;20802;-56
2021/01/09 01:45:10;;;;;;;3.50;3.07;;;20.60;32.80;;;;;;5033331;28;20474;-56
2021/01/09 01:47:35;;;;;;;3.17;2.88;;;20.60;32.80;;;;;;5030214;28;20486;-57
2021/01/09 01:50:02;;;;;;;3.60;3.10;;;20.50;32.70;;;;;;5032847;28;20474;-56
2021/01/09 01:52:28;;;;;;;3.38;3.08;;;20.50;32.70;;;;;;5032228;28;20391;-56
2021/01/09 01:54:54;;;;;;;3.78;3.03;;;20.50;32.70;;;;;;5032551;28;20871;-56
2021/01/09 01:57:20;;;;;;;3.70;3.13;;;20.50;32.80;;;;;;5032402;28;20411;-56
2021/01/09 01:59:46;;;;;;;3.17;2.88;;;20.50;32.60;;;;;;5031735;28;20410;-56
2021/01/09 02:02:13;;;;;;;3.45;3.00;;;20.50;32.60;;;;;;5032491;28;20391;-56
2021/01/09 02:04:40;;;;;;;3.33;2.90;;;20.50;32.60;;;;;;5031899;28;20446;-56
2021/01/09 02:07:16;;;;;;;3.10;2.80;;;20.50;32.60;;;;;;5032737;28;20468;-56
2021/01/09 02:09:48;;;;;;;3.20;2.90;;;20.50;32.50;;;;;;5030491;28;20398;-56
2021/01/09 02:12:24;;;;;;;3.38;3.08;;;20.50;32.50;;;;;;5031832;28;20755;-56
2021/01/09 02:14:58;;;;;;;3.33;2.78;;;20.50;32.50;;;;;;5031677;28;20442;-57
2021/01/09 02:17:26;;;;;;;3.22;2.60;;;20.50;32.50;;;;;;5032165;28;20415;-56
2021/01/09 02:19:56;;;;;;;3.28;2.90;;;20.50;32.60;;;;;;5032010;28;20410;-56
2021/01/09 02:22:23;;;;;;;3.00;2.70;;;20.50;32.50;;;;;;5031458;28;20414;-57
2021/01/09 02:24:48;;;;;;;3.38;2.83;;;20.50;32.50;;;;;;5030390;28;20411;-56
2021/01/09 02:27:14;;;;;;;3.27;2.70;;;20.50;32.50;;;;;;5023808;28;20416;-56
2021/01/09 02:30:02;;;;;;;3.00;2.70;;;20.50;32.50;;;;;;5032163;28;20405;-56
2021/01/09 02:32:32;;;;;;;3.15;2.65;;;20.40;32.40;;;;;;5031480;28;20401;-57
2021/01/09 02:35:00;;;;;;;3.20;2.65;;;20.50;32.40;;;;;;5031448;28;20394;-57
2021/01/09 02:37:26;;;;;;;2.90;2.55;;;20.50;32.30;;;;;;5031868;28;20415;-57
2021/01/09 02:39:53;;;;;;;2.88;2.50;;;20.50;32.30;;;;;;5030780;28;20409;-56
2021/01/09 02:42:20;;;;;;;2.65;2.30;;;20.50;32.30;;;;;;5031687;28;20395;-56
2021/01/09 02:44:51;;;;;;;2.92;2.53;;;20.40;32.20;;;;;;5030947;28;20403;-57
2021/01/09 02:47:17;;;;;;;2.90;2.60;;;20.40;32.20;;;;;;5031636;28;20892;-57
2021/01/09 02:49:42;;;;;;;3.00;2.60;;;20.40;32.20;;;;;;5032273;28;20881;-57
2021/01/09 02:52:08;;;;;;;2.70;2.40;;;20.40;32.20;;;;;;5032085;28;20466;-57
2021/01/09 02:54:33;;;;;;;3.25;2.65;;;20.40;32.20;;;;;;5031706;28;20413;-57
2021/01/09 02:56:59;;;;;;;2.90;2.60;;;20.40;32.20;;;;;;5031688;28;20383;-57
2021/01/09 02:59:25;;;;;;;2.50;2.30;;;20.40;32.20;;;;;;5031927;28;20395;-57
2021/01/09 03:01:50;;;;;;;3.00;2.27;;;20.40;32.20;;;;;;5032031;28;20402;-57
2021/01/09 03:04:16;;;;;;;2.88;2.50;;;20.40;32.30;;;;;;5031731;28;20403;-57
2021/01/09 03:06:42;;;;;;;2.80;2.50;;;20.40;32.30;;;;;;5031464;28;20387;-57
2021/01/09 03:09:08;;;;;;;2.90;2.50;;;20.40;32.30;;;;;;5031528;28;20473;-56
2021/01/09 03:11:33;;;;;;;2.90;2.30;;;20.40;32.30;;;;;;5031943;28;20387;-57
2021/01/09 03:13:59;;;;;;;2.73;2.43;;;20.40;32.40;;;;;;5031715;28;20434;-57
2021/01/09 03:16:24;;;;;;;2.50;2.10;;;20.40;32.30;;;;;;5031874;28;20747;-56
2021/01/09 03:18:50;;;;;;;2.50;2.20;;;20.40;32.20;;;;;;5031237;28;20887;-57
2021/01/09 03:21:16;;;;;;;2.77;2.40;;;20.40;32.30;;;;;;5031628;28;20399;-57
2021/01/09 03:23:41;;;;;;;3.10;2.45;;;20.40;32.20;;;;;;5031492;28;20410;-56
2021/01/09 03:26:07;;;;;;;2.73;2.20;;;20.40;32.20;;;;;;5031598;28;20390;-57
2021/01/09 03:28:32;;;;;;;2.30;2.00;;;20.40;32.10;;;;;;5031371;28;20786;-57
2021/01/09 03:30:58;;;;;;;3.07;2.40;;;20.40;32.20;;;;;;5031450;28;20477;-56
2021/01/09 03:33:24;;;;;;;2.58;2.38;;;20.40;32.10;;;;;;5029914;28;20415;-56
2021/01/09 03:35:49;;;;;;;2.80;2.25;;;20.40;32.10;;;;;;5030078;28;20390;-56
2021/01/09 03:38:15;;;;;;;2.43;2.23;;;20.40;32.10;;;;;;5031409;28;20422;-57
2021/01/09 03:40:41;;;;;;;2.80;2.20;;;20.40;32.00;;;;;;5030984;28;20875;-57
2021/01/09 03:43:06;;;;;;;2.80;2.50;;;20.40;32.10;;;;;;5031214;28;20403;-57
2021/01/09 03:45:32;;;;;;;2.53;2.10;;;20.30;32.00;;;;;;5031127;28;20405;-57
2021/01/09 03:47:58;;;;;;;2.97;2.30;;;20.30;32.00;;;;;;5031484;28;20391;-57
2021/01/09 03:50:24;;;;;;;2.90;2.20;;;20.30;32.00;;;;;;5031332;28;20383;-57
2021/01/09 03:52:49;;;;;;;2.60;2.33;;;20.30;32.00;;;;;;5030864;28;20886;-57
2021/01/09 03:55:15;;;;;;;3.10;2.40;;;20.40;32.00;;;;;;5029581;28;20395;-57
2021/01/09 03:57:41;;;;;;;2.95;2.22;;;20.30;31.90;;;;;;5031017;28;20406;-57
2021/01/09 04:00:07;;;;;;;2.50;2.20;;;20.40;31.90;;;;;;5031223;28;20411;-58
2021/01/09 04:02:33;;;;;;;2.58;2.30;;;20.30;31.90;;;;;;5030046;28;20478;-57
2021/01/09 04:05:00;;;;;;;3.00;2.40;;;20.30;31.80;;;;;;5030731;28;20948;-56
2021/01/09 04:07:26;;;;;;;2.47;2.20;;;20.30;31.80;;;;;;5031264;28;20445;-57
2021/01/09 04:09:52;;;;;;;2.53;2.20;;;20.30;31.80;;;;;;5031277;28;20441;-57
2021/01/09 04:12:17;;;;;;;3.03;2.58;;;20.30;31.80;;;;;;5029875;28;20452;-57
2021/01/09 04:14:43;;;;;;;3.10;2.33;;;20.30;31.80;;;;;;5030532;28;20472;-57
2021/01/09 04:17:08;;;;;;;2.92;2.47;;;20.30;31.80;;;;;;5030900;28;20387;-57
2021/01/09 04:19:34;;;;;;;3.30;2.33;;;20.30;31.80;;;;;;5031139;28;20986;-57
2021/01/09 04:22:00;;;;;;;2.88;2.38;;;20.30;31.80;;;;;;5031148;28;20494;-57
2021/01/09 04:24:25;;;;;;;2.80;2.30;;;20.30;31.70;;;;;;5030777;28;20405;-57
2021/01/09 04:26:55;;;;;;;3.22;2.75;;;20.30;31.70;;;;;;5030759;28;20418;-57
2021/01/09 04:29:21;;;;;;;2.90;2.35;;;20.30;31.70;;;;;;5031089;28;20401;-56
2021/01/09 04:31:48;;;;;;;3.47;2.40;;;20.30;31.80;;;;;;5030963;28;20395;-57
2021/01/09 04:34:15;;;;;;;3.05;2.30;;;20.30;31.70;;;;;;5030764;28;20418;-57
2021/01/09 04:36:40;;;;;;;2.53;2.20;;;20.30;31.80;;;;;;5030209;28;20442;-56
2021/01/09 04:39:06;;;;;;;2.90;2.40;;;20.20;31.60;;;;;;5030871;28;20447;-57
2021/01/09 04:41:36;;;;;;;3.13;2.40;;;20.20;31.60;;;;;;5030949;28;20478;-57
2021/01/09 04:44:04;;;;;;;2.65;2.25;;;20.20;31.60;;;;;;5030855;28;20399;-57
2021/01/09 04:46:33;;;;;;;2.67;2.20;;;20.20;31.60;;;;;;5029845;28;20387;-57
2021/01/09 04:48:59;;;;;;;2.60;2.10;;;20.20;31.50;;;;;;5034037;28;20466;-57
2021/01/09 04:51:27;;;;;;;2.75;2.40;;;20.30;31.60;;;;;;5034457;28;20419;-57
2021/01/09 04:53:54;;;;;;;3.00;2.50;;;20.20;31.50;;;;;;5033063;28;20767;-57
2021/01/09 04:56:20;;;;;;;2.80;2.30;;;20.30;31.50;;;;;;5034041;28;20407;-56
2021/01/09 04:58:45;;;;;;;2.50;2.30;;;20.20;31.40;;;;;;5033733;28;20430;-56
2021/01/09 05:01:12;;;;;;;2.75;2.33;;;20.30;31.50;;;;;;5034169;28;20399;-57
2021/01/09 05:03:38;;;;;;;2.97;2.20;;;20.20;31.40;;;;;;5034256;28;20418;-57
2021/01/09 05:06:04;;;;;;;2.70;2.20;;;20.20;31.40;;;;;;5033971;28;20948;-57
2021/01/09 05:08:30;;;;;;;2.88;2.47;;;20.20;31.30;;;;;;5034278;28;20927;-56
2021/01/09 05:10:55;;;;;;;3.03;2.33;;;20.20;31.30;;;;;;5033759;28;20478;-56
2021/01/09 05:13:23;;;;;;;2.60;2.20;;;20.20;31.30;;;;;;5034048;28;20405;-57
2021/01/09 05:15:53;;;;;;;2.42;2.22;;;20.20;31.40;;;;;;5033485;28;20883;-57
2021/01/09 05:18:19;;;;;;;2.85;2.28;;;20.20;31.40;;;;;;5033923;28;20441;-57
2021/01/09 05:20:44;;;;;;;2.60;2.30;;;20.20;31.40;;;;;;5033560;28;20387;-57
2021/01/09 05:23:11;;;;;;;2.67;2.38;;;20.20;31.40;;;;;;5033750;28;20382;-57
2021/01/09 05:25:38;;;;;;;2.83;2.22;;;20.20;31.30;;;;;;5033543;28;20576;-57
2021/01/09 05:28:05;;;;;;;2.97;2.40;;;20.20;31.20;;;;;;5033848;28;20395;-57
2021/01/09 05:30:32;;;;;;;2.85;2.30;;;20.20;31.20;;;;;;5033706;28;20897;-57
2021/01/09 05:33:00;;;;;;;2.42;2.05;;;20.10;31.20;;;;;;5032928;28;20505;-57
2021/01/09 05:35:28;;;;;;;2.38;2.00;;;20.10;31.20;;;;;;5032941;28;20407;-57
2021/01/09 05:37:54;;;;;;;2.83;2.20;;;20.10;31.20;;;;;;5033567;28;20443;-57
2021/01/09 05:40:20;;;;;;;2.33;2.10;;;20.20;31.90;;;;;;5033358;28;20427;-57
2021/01/09 05:42:46;;;;;;;2.50;2.03;;;20.20;31.20;;;;;;5032568;28;20387;-57
2021/01/09 05:45:13;;;;;;;2.50;2.20;;;20.20;31.00;;;;;;5033193;28;20404;-57
2021/01/09 05:47:39;;;;;;;2.40;2.10;;;20.20;31.10;;;;;;5033471;28;20379;-57
2021/01/09 05:50:07;;;;;;;2.42;2.08;;;20.10;31.00;;;;;;5033290;28;20398;-57
2021/01/09 05:52:39;;;;;;;2.58;2.15;;;20.10;31.00;;;;;;5033435;28;20450;-57
2021/01/09 05:55:06;;;;;;;2.38;2.05;;;20.10;31.00;;;;;;5033354;28;20379;-57
2021/01/09 05:57:34;;;;;;;2.42;1.90;;;20.10;30.90;;;;;;5032962;28;20871;-57
2021/01/09 06:00:03;;;;;;;2.30;1.90;;;20.10;31.00;;;;;;5033122;28;20405;-57
2021/01/09 06:02:46;;;;;;;2.63;2.20;;;20.10;31.60;;;;;;5032939;28;20409;-57
2021/01/09 06:05:14;;;;;;;2.60;2.20;;;20.10;31.00;;;;;;5033009;28;20384;-57
2021/01/09 06:07:40;;;;;;;2.30;1.80;;;20.10;31.00;;;;;;5033074;28;20395;-57
2021/01/09 06:10:06;;;;;;;2.60;2.20;;;20.10;31.00;;;;;;5032875;28;20388;-57
2021/01/09 06:12:36;;;;;;;2.67;2.03;;;20.10;30.90;;;;;;5032592;28;20422;-57
2021/01/09 06:15:05;;;;;;;2.35;2.10;;;20.10;30.90;;;;;;5032474;28;20395;-56
2021/01/09 06:17:33;;;;;;;2.50;2.05;;;20.00;30.80;;;;;;5032357;28;20399;-57
2021/01/09 06:19:59;;;;;;;2.30;2.00;;;20.00;30.90;;;;;;5032875;28;20410;-57
2021/01/09 06:22:28;;;;;;;2.45;2.00;;;20.00;30.90;;;;;;5032276;28;20760;-56
2021/01/09 06:24:54;;;;;;;2.38;2.00;;;20.00;30.90;;;;;;5031973;28;20403;-57
2021/01/09 06:27:30;;;;;;;2.70;2.00;;;20.00;30.80;;;;;;5032571;28;20394;-56
2021/01/09 06:30:03;;;;;;;2.20;1.80;;;20.00;30.80;;;;;;5032526;28;20548;-57
2021/01/09 06:32:33;;;;;;;2.03;1.70;;;20.00;30.80;;;;;;5032158;28;20806;-56
2021/01/09 06:35:03;;;;;;;1.90;1.70;;;19.90;30.80;;;;;;5030811;28;20884;-56
2021/01/09 06:37:28;;;;;;;2.30;2.00;;;20.00;30.70;;;;;;5030982;28;20409;-56
2021/01/09 06:39:55;;;;;;;2.08;1.75;;;20.00;30.70;;;;;;5032380;28;20403;-57
2021/01/09 06:42:21;;;;;;;2.17;1.70;;;20.00;30.80;;;;;;5032003;28;20429;-56
2021/01/09 06:44:51;;;;;;;1.98;1.77;;;20.00;30.70;;;;;;5032032;28;20419;-56
2021/01/09 06:47:27;;;;;;;2.10;1.90;;;19.90;30.70;;;;;;5032262;28;20435;-57
2021/01/09 06:49:54;;;;;;;2.17;1.90;;;19.90;30.60;;;;;;5032154;28;20403;-57
2021/01/09 06:52:20;;;;;;;2.30;1.90;;;19.90;30.70;;;;;;5031835;28;20403;-57
2021/01/09 06:54:47;;;;;;;1.90;1.70;;;19.90;30.70;;;;;;5031671;28;20410;-57
2021/01/09 06:57:17;;;;;;;2.20;1.80;;;19.90;30.60;;;;;;5032037;28;20402;-57
2021/01/09 06:59:51;;;;;;;2.10;1.88;;;19.90;30.60;;;;;;5032073;28;20805;-57
2021/01/09 07:02:24;;;;;;;2.22;1.80;;;19.90;30.70;;;;;;5031501;28;20407;-57
2021/01/09 07:05:09;;;;;;;2.38;1.92;;;19.90;30.60;;;;;;5031563;28;20433;-57
2021/01/09 07:07:54;;;;;;;3.35;2.17;;;19.90;30.00;;;;;;5031951;28;20391;-57
2021/01/09 07:10:28;;;;;;;2.05;1.75;;;19.80;29.50;;;;;;5031286;28;20391;-57
2021/01/09 07:12:59;;;;;;;2.90;2.10;;;19.70;29.70;;;;;;5030541;28;20395;-57
2021/01/09 07:15:28;;;;;;;3.10;1.90;;;19.60;30.10;;;;;;5031309;28;20403;-68
2021/01/09 07:17:58;;;;;;;2.70;1.77;;;19.60;30.70;;;;;;5031586;28;20489;-59
2021/01/09 07:20:28;;;;;;;2.63;1.80;;;19.60;31.00;;;;;;5031827;28;20383;-59
2021/01/09 07:23:00;;;;;;;2.58;2.10;;;19.60;30.90;;;;;;5031704;28;20433;-59
2021/01/09 07:25:37;;;;;;;6.60;2.10;;;19.60;30.80;;;;;;5031505;28;20392;-59
2021/01/09 07:28:13;;;;;;;5.15;2.40;;;19.50;31.30;;;;;;5031403;28;20383;-59
2021/01/09 07:30:40;;;;;;;5.80;2.20;;;19.50;31.80;;;;;;5031489;28;20430;-59
2021/01/09 07:33:11;;;;;;;3.17;2.08;;;19.50;31.20;;;;;;5030487;28;20486;-59
2021/01/09 07:35:42;;;;;;;2.90;1.90;;;19.50;31.30;;;;;;5030222;28;20411;-59
2021/01/09 07:38:08;;;;;;;2.47;2.00;;;19.50;31.30;;;;;;5030536;28;20419;-59
2021/01/09 07:40:46;;;;;;;5.10;2.20;;;19.50;31.30;;;;;;5031034;28;20763;-59
2021/01/09 07:43:33;;;;;;;2.92;1.98;;;19.60;31.90;;;;;;5030397;28;20401;-62
2021/01/09 07:46:00;;;;;;;3.53;2.00;;;19.70;32.00;;;;;;5030673;28;20457;-59
2021/01/09 07:48:32;;;;;;;4.32;1.98;;;19.70;31.60;;;;;;5031153;28;20394;-59
2021/01/09 07:50:58;;;;;;;3.65;2.03;;;19.70;32.10;;;;;;5030560;28;20380;-59
2021/01/09 07:53:27;;;;;;;4.15;1.92;;;19.80;32.70;;;;;;5030411;28;20473;-59
2021/01/09 07:55:54;;;;;;;5.82;1.90;;;19.80;32.50;;;;;;5030876;28;20395;-60
2021/01/09 07:58:42;;;;;;;5.18;2.40;;;19.80;33.30;;;;;;5030739;28;20411;-59
2021/01/09 08:01:08;;;;;;;4.03;1.80;;;19.90;32.60;;;;;;5028958;28;20462;-59
2021/01/09 08:03:34;;;;;;;6.13;2.10;;;19.90;32.50;;;;;;5031009;28;20906;-59
2021/01/09 08:06:19;;;;;;;3.58;2.15;;;19.90;32.90;;;;;;5030021;28;20411;-59
2021/01/09 08:08:50;;;;;;;4.82;2.03;;;19.90;33.00;;;;;;5029477;28;20942;-61
2021/01/09 08:11:15;;;;;;;4.53;2.20;;;19.80;33.10;;;;;;5029508;28;20397;-58
2021/01/09 08:13:42;;;;;;;4.82;1.90;;;19.80;32.90;;;;;;5028982;28;20399;-58
2021/01/09 08:16:07;;;;;;;3.92;1.80;;;19.80;33.00;;;;;;5028480;28;20394;-59
2021/01/09 08:18:33;;;;;;;4.90;1.80;;;19.80;32.70;;;;;;5030079;28;20411;-58
2021/01/09 08:20:59;;;;;;;4.32;1.80;;;19.90;33.70;;;;;;5030199;28;20398;-59
2021/01/09 08:23:25;;;;;;;6.97;1.98;;;19.80;34.20;;;;;;5033625;28;20902;-60
2021/01/09 08:25:51;;;;;;;8.53;2.80;;;20.00;34.60;;;;;;5034477;28;20452;-59
2021/01/09 08:28:18;;;;;;;6.57;2.28;;;20.00;33.90;;;;;;5034567;28;20458;-59
2021/01/09 08:30:43;;;;;;;5.85;1.88;;;20.00;33.20;;;;;;5034142;28;20891;-59
2021/01/09 08:33:18;;;;;;;5.85;1.85;;;20.00;33.10;;;;;;5033514;28;20421;-60
2021/01/09 08:35:48;;;;;;;5.93;1.90;;;20.00;33.00;;;;;;5034545;28;20521;-59
2021/01/09 08:38:14;;;;;;;2.35;1.63;;;20.00;33.10;;;;;;5034266;28;20414;-59
2021/01/09 08:40:42;;;;;;;4.18;1.88;;;20.00;33.20;;;;;;5033273;28;20753;-59
2021/01/09 08:43:12;;;;;;;6.05;2.00;;;20.00;33.20;;;;;;5034007;28;20387;-59
2021/01/09 08:45:51;;;;;;;3.65;1.77;;;20.00;32.90;;;;;;5033647;28;20390;-60
2021/01/09 08:48:34;;;;;;;5.40;1.88;;;20.10;32.70;;;;;;5032352;28;20476;-59
2021/01/09 08:51:12;;;;;;;5.95;2.05;;;20.10;32.30;;;;;;5031937;28;20490;-59
2021/01/09 08:53:56;;;;;;;5.40;1.90;;;20.20;32.40;;;;;;5032342;28;20472;-60
2021/01/09 08:56:24;;;;;;;3.40;1.80;;;20.20;32.10;;;;;;5032337;28;20956;-60
2021/01/09 08:58:50;;;;;;;4.40;1.80;;;20.20;32.30;;;;;;5032462;28;20415;-59
2021/01/09 09:01:25;;;;;;;3.90;1.83;;;20.20;32.10;;;;;;5031472;28;20498;-60
2021/01/09 09:03:55;;;;;;;3.90;2.00;;;20.30;32.00;;;;;;5034107;28;20386;-59
2021/01/09 09:06:28;;;;;;;3.13;1.70;;;20.30;32.60;;;;;;5034096;28;20433;-59
2021/01/09 09:08:54;;;;;;;2.85;1.77;;;20.30;31.80;;;;;;5033911;28;20891;-59
2021/01/09 09:11:24;;;;;;;3.60;1.85;;;20.40;31.80;;;;;;5034120;28;20391;-59
2021/01/09 09:14:05;;;;;;;3.07;1.60;;;20.40;31.70;;;;;;5032808;28;20739;-59
2021/01/09 09:16:32;;;;;;;3.20;1.80;;;20.50;31.70;;;;;;5033800;28;20395;-59
2021/01/09 09:18:57;;;;;;;2.75;1.63;;;20.50;31.60;;;;;;5033296;28;20911;-59
2021/01/09 09:21:26;;;;;;;2.28;1.60;;;20.60;31.50;;;;;;5032647;28;20398;-59
2021/01/09 09:23:55;;;;;;;2.45;1.63;;;20.60;31.40;;;;;;5033868;28;20410;-59
2021/01/09 09:26:20;;;;;;;2.40;1.60;;;20.70;31.30;;;;;;5033745;28;20387;-59
2021/01/09 09:28:54;;;;;;;2.30;1.58;;;20.70;31.20;;;;;;5033882;28;20391;-59
2021/01/09 09:31:21;;;;;;;1.95;1.50;;;20.80;31.10;;;;;;5033513;28;20390;-59
2021/01/09 09:33:54;;;;;;;1.85;1.55;;;20.70;31.00;;;;;;5032963;28;20416;-59
2021/01/09 09:36:20;;;;;;;2.50;1.70;;;20.80;31.00;;;;;;5032262;28;20798;-59
2021/01/09 09:38:45;;;;;;;2.22;1.52;;;20.80;30.90;;;;;;5033574;28;20419;-59
2021/01/09 09:41:11;;;;;;;2.40;1.80;;;20.80;30.80;;;;;;5032923;28;20390;-59
2021/01/09 09:43:37;;;;;;;2.55;1.70;;;20.90;30.80;;;;;;5033559;28;20751;-59
2021/01/09 09:46:05;;;;;;;2.00;1.70;;;20.90;30.80;;;;;;5033393;28;20422;-59
2021/01/09 09:48:41;;;;;;;3.90;2.03;;;20.90;30.80;;;;;;5032023;28;20978;-59
2021/01/09 09:51:11;;;;;;;4.10;1.90;;;20.90;30.60;;;;;;5032763;28;20521;-59
2021/01/09 09:53:42;;;;;;;3.72;1.80;;;20.80;30.40;;;;;;5033200;28;20898;-59
2021/01/09 09:56:17;;;;;;;3.35;1.73;;;20.90;30.50;;;;;;5033181;28;21049;-59
2021/01/09 09:58:44;;;;;;;3.55;1.85;;;20.90;30.40;;;;;;5033085;28;20921;-59
2021/01/09 10:01:19;;;;;;;5.05;1.92;;;20.80;30.40;;;;;;5032607;28;20390;-59
2021/01/09 10:03:47;;;;;;;3.95;2.00;;;20.80;31.80;;;;;;5032828;28;20395;-60
2021/01/09 10:06:13;;;;;;;7.88;2.40;;;20.90;32.50;;;;;;5032839;28;20740;-59
2021/01/09 10:08:38;;;;;;;8.18;2.38;;;21.00;32.30;;;;;;5032396;28;20391;-59
2021/01/09 10:11:05;;;;;;;7.32;2.28;;;21.10;31.80;;;;;;5032226;28;20749;-59
2021/01/09 10:13:31;;;;;;;8.30;2.40;;;21.10;32.00;;;;;;5032831;28;20395;-59
2021/01/09 10:15:57;;;;;;;7.30;1.90;;;21.20;31.80;;;;;;5032819;28;20391;-59
2021/01/09 10:18:24;;;;;;;5.70;1.90;;;21.20;31.70;;;;;;5032144;28;20445;-59
2021/01/09 10:20:50;;;;;;;5.90;2.00;;;21.30;31.80;;;;;;5032195;28;20390;-59
2021/01/09 10:23:15;;;;;;;7.00;2.07;;;21.30;31.90;;;;;;5032109;28;20387;-59
2021/01/09 10:25:41;;;;;;;7.97;2.08;;;21.40;32.10;;;;;;5032623;28;20751;-78
2021/01/09 10:28:07;;;;;;;4.97;2.30;;;21.50;31.50;;;;;;5032822;28;20394;-60
2021/01/09 10:30:32;;;;;;;6.43;2.30;;;21.60;32.40;;;;;;5032512;28;20867;-60
2021/01/09 10:32:58;;;;;;;5.85;1.90;;;21.60;32.10;;;;;;5031988;28;20435;-60
2021/01/09 10:35:24;;;;;;;7.67;2.00;;;21.70;32.20;;;;;;5031341;28;20461;-60
2021/01/09 10:37:49;;;;;;;7.22;2.20;;;21.80;32.30;;;;;;5032570;28;20398;-60
2021/01/09 10:40:15;;;;;;;7.93;2.00;;;21.80;32.40;;;;;;5032412;28;20403;-60
2021/01/09 10:42:41;;;;;;;7.53;1.65;;;21.90;32.50;;;;;;5032283;28;20394;-60
2021/01/09 10:45:08;;;;;;;6.88;2.00;;;21.90;32.40;;;;;;5030329;28;20411;-60
2021/01/09 10:47:34;;;;;;;7.95;1.80;;;22.00;32.60;;;;;;5032243;28;20917;-60
2021/01/09 10:50:00;;;;;;;6.47;2.00;;;22.00;32.50;;;;;;5032219;28;20479;-57
2021/01/09 10:52:25;;;;;;;3.67;1.80;;;22.10;32.50;;;;;;5032072;28;20493;-58
2021/01/09 10:54:51;;;;;;;5.10;1.80;;;22.20;32.30;;;;;;5032228;28;20528;-57
2021/01/09 10:57:16;;;;;;;6.67;1.90;;;22.20;31.70;;;;;;5031557;28;20756;-58
2021/01/09 10:59:42;;;;;;;5.57;1.73;;;22.20;31.90;;;;;;5031971;28;20419;-58
2021/01/09 11:02:08;;;;;;;3.50;1.95;;;22.30;31.80;;;;;;5032117;28;20519;-57
2021/01/09 11:04:34;;;;;;;5.43;1.98;;;22.30;31.50;;;;;;5032085;28;20446;-57
2021/01/09 11:07:00;;;;;;;4.50;1.98;;;22.30;31.50;;;;;;5030203;28;20388;-57
2021/01/09 11:09:26;;;;;;;5.33;1.90;;;22.40;31.50;;;;;;5030596;28;20875;-57
2021/01/09 11:11:52;;;;;;;4.40;1.70;;;22.40;31.50;;;;;;5031803;28;20383;-57
2021/01/09 11:14:18;;;;;;;6.00;1.92;;;22.40;31.40;;;;;;5031887;28;21041;-58
2021/01/09 11:16:44;;;;;;;8.73;1.70;;;22.50;31.40;;;;;;5031700;28;20387;-60
2021/01/09 11:19:10;;;;;;;9.80;2.17;;;22.50;31.10;;;;;;5031144;28;20791;-57
2021/01/09 11:21:37;;;;;;;7.93;2.00;;;22.60;31.90;;;;;;5030405;28;20448;-76
2021/01/09 11:24:06;;;;;;;12.32;2.00;;;22.60;32.40;;;;;;5030721;28;20422;-75
2021/01/09 11:26:32;;;;;;;4.03;1.85;;;22.60;31.90;;;;;;5031828;28;20961;-72
2021/01/09 11:28:58;;;;;;;5.78;1.90;;;22.70;31.50;;;;;;5038961;28;20496;-76
2021/01/09 11:31:24;;;;;;;6.38;2.30;;;22.70;30.90;;;;;;5042424;28;20890;-78
2021/01/09 11:33:50;;;;;;;6.20;2.10;;;22.70;31.00;;;;;;5032046;28;20406;-76
2021/01/09 11:36:16;;;;;;;4.00;2.00;;;22.70;30.70;;;;;;5032072;28;20391;-64
2021/01/09 11:38:42;;;;;;;3.95;2.10;;;22.80;30.50;;;;;;5029237;28;20434;-75
2021/01/09 11:41:09;;;;;;;4.40;2.00;;;22.80;30.40;;;;;;5031184;28;20391;-76
2021/01/09 11:43:36;;;;;;;3.73;2.00;;;22.80;30.30;;;;;;5024351;28;20891;-63
2021/01/09 11:46:05;;;;;;;3.63;2.20;;;22.90;30.20;;;;;;5027109;28;20402;-70
2021/01/09 11:48:31;;;;;;;3.47;2.10;;;22.90;30.20;;;;;;5030918;28;20888;-77
2021/01/09 11:50:56;;;;;;;5.07;2.25;;;23.00;30.30;;;;;;5030950;28;20422;-62
2021/01/09 11:53:22;;;;;;;3.58;2.30;;;23.00;30.20;;;;;;5030925;28;20755;-58
2021/01/09 11:55:49;;;;;;;4.97;2.40;;;23.10;30.40;;;;;;5031627;28;20755;-57
2021/01/09 11:58:15;;;;;;;4.93;2.70;;;23.10;30.20;;;;;;5035241;28;20640;-57
2021/01/09 12:00:41;;;;;;;5.03;2.60;;;23.20;30.50;;;;;;5035546;28;20473;-57
2021/01/09 12:03:07;;;;;;;5.35;2.60;;;23.20;30.70;;;;;;5034986;28;20478;-61
2021/01/09 12:05:32;;;;;;;4.53;2.77;;;23.30;30.70;;;;;;5035612;28;20387;-61
2021/01/09 12:07:58;;;;;;;4.72;2.65;;;23.30;30.50;;;;;;5035237;28;20887;-57
2021/01/09 12:10:24;;;;;;;4.03;2.37;;;23.40;30.70;;;;;;5035147;28;20391;-58
2021/01/09 12:12:50;;;;;;;6.80;2.40;;;23.40;30.80;;;;;;5035359;28;20414;-57
2021/01/09 12:15:15;;;;;;;6.53;2.90;;;23.50;31.00;;;;;;5033441;28;20759;-57
2021/01/09 12:17:41;;;;;;;6.93;3.27;;;23.60;31.30;;;;;;5033703;28;20485;-76
2021/01/09 12:20:07;;;;;;;8.10;2.80;;;23.60;31.70;;;;;;5035221;28;20406;-76
2021/01/09 12:22:33;;;;;;;8.10;2.53;;;23.60;30.60;;;;;;5034574;28;20391;-57
2021/01/09 12:24:59;;;;;;;5.77;2.50;;;23.70;30.80;;;;;;5049715;28;20764;-58
2021/01/09 12:27:25;;;;;;;8.07;3.10;;;23.70;30.70;;;;;;5030038;28;20407;-59
2021/01/09 12:29:50;;;;;;;11.55;3.20;;;23.70;30.80;;;;;;5015086;28;20397;-67
2021/01/09 12:32:16;;;;;;;8.63;3.03;;;23.80;30.60;;;;;;5013761;28;20494;-77
2021/01/09 12:34:42;;;;;;;12.02;3.40;;;23.80;30.90;;;;;;5015395;28;20396;-70
2021/01/09 12:37:07;;;;;;;11.33;3.40;;;23.80;30.20;;;;;;5014507;28;20380;-72
2021/01/09 12:39:33;;;;;;;9.15;3.55;;;23.90;30.50;;;;;;5027603;28;20419;-78
2021/01/09 12:41:59;;;;;;;10.13;3.50;;;23.90;30.10;;;;;;5034100;28;20395;-75
2021/01/09 12:44:24;;;;;;;11.38;3.55;;;23.90;30.10;;;;;;5034641;28;20506;-61
2021/01/09 12:46:50;;;;;;;11.90;3.07;;;24.00;30.00;;;;;;5029697;28;20458;-74